Time;durP1;ratioP1;P1;durP2;ratioP2;P2;SDS_P1;SDS_P2;PMS_P1;PMS_P2;Temp;Humidity;BMP_temperature;BMP_pressure;BME280_temperature;BME280_humidity;BME280_pressure;Samples;Min_cycle;Max_cycle;Signal;HPM_P1;HPM_P2
2021/12/22 00:02:07;;;;;;;16.98;12.95;;;;;;;1.40;42.36;102332.56;5088966;28;20892;-65
2021/12/22 00:04:39;;;;;;;20.20;15.45;;;;;;;1.45;42.57;102329.84;5087693;28;20524;-65
2021/12/22 00:07:06;;;;;;;18.95;15.07;;;;;;;1.54;42.19;102327.06;5088805;28;20496;-65
2021/12/22 00:09:34;;;;;;;20.10;15.27;;;;;;;1.59;42.28;102328.69;5088186;28;20413;-64
2021/12/22 00:12:02;;;;;;;21.73;19.52;;;;;;;1.72;41.69;102331.91;5089448;28;20496;-65
2021/12/22 00:14:29;;;;;;;16.35;14.07;;;;;;;1.75;41.62;102331.88;5088865;28;20885;-64
2021/12/22 00:16:56;;;;;;;18.63;13.70;;;;;;;1.68;41.89;102332.00;5089143;28;20512;-64
2021/12/22 00:19:23;;;;;;;15.40;12.93;;;;;;;1.75;41.91;102329.25;5088661;28;20720;-65
2021/12/22 00:21:50;;;;;;;17.80;14.10;;;;;;;1.62;41.80;102340.81;5088730;28;21071;-65
2021/12/22 00:24:17;;;;;;;15.65;12.25;;;;;;;1.73;41.81;102336.25;5088579;28;20409;-64
2021/12/22 00:26:44;;;;;;;16.52;11.90;;;;;;;1.31;42.46;102325.75;5088614;28;20810;-65
2021/12/22 00:29:14;;;;;;;13.23;10.52;;;;;;;1.22;42.86;102333.75;5088946;28;20440;-64
2021/12/22 00:31:44;;;;;;;13.35;10.65;;;;;;;0.99;43.92;102331.53;5088580;28;20532;-65
2021/12/22 00:34:16;;;;;;;13.13;10.48;;;;;;;0.82;43.95;102336.19;5088568;28;20446;-64
2021/12/22 00:36:43;;;;;;;16.35;11.68;;;;;;;0.59;44.39;102334.78;5088802;28;20462;-64
2021/12/22 00:39:10;;;;;;;12.27;10.07;;;;;;;0.74;44.36;102339.75;5088009;28;20429;-64
2021/12/22 00:41:38;;;;;;;12.38;9.88;;;;;;;0.93;43.93;102340.34;5088343;28;20425;-65
2021/12/22 00:44:06;;;;;;;11.05;9.32;;;;;;;0.80;44.28;102339.66;5088308;28;20413;-64
2021/12/22 00:46:34;;;;;;;11.98;9.75;;;;;;;1.17;43.62;102344.25;5088915;28;20458;-64
2021/12/22 00:49:01;;;;;;;10.93;9.18;;;;;;;1.15;43.50;102355.63;5088409;28;21000;-64
2021/12/22 00:51:28;;;;;;;12.27;9.05;;;;;;;1.14;43.44;102349.53;5068207;28;20914;-65
2021/12/22 00:53:57;;;;;;;11.07;9.10;;;;;;;1.25;43.23;102351.09;5087479;28;20505;-65
2021/12/22 00:56:24;;;;;;;10.70;9.27;;;;;;;1.17;43.36;102348.63;5088392;28;20427;-64
2021/12/22 00:58:51;;;;;;;11.27;9.48;;;;;;;1.17;43.39;102353.84;5088703;28;20452;-64
2021/12/22 01:01:18;;;;;;;12.35;10.05;;;;;;;1.09;43.62;102353.13;5087991;28;20984;-64
2021/12/22 01:03:46;;;;;;;12.53;10.90;;;;;;;1.12;43.49;102350.47;5088690;28;20474;-64
2021/12/22 01:06:14;;;;;;;14.75;11.00;;;;;;;1.13;43.40;102347.81;5087962;28;20453;-64
2021/12/22 01:08:40;;;;;;;15.68;11.55;;;;;;;1.09;43.70;102353.13;5088184;28;20478;-64
2021/12/22 01:11:08;;;;;;;13.95;11.70;;;;;;;1.10;43.54;102354.84;5088303;28;20755;-64
2021/12/22 01:13:35;;;;;;;13.43;11.48;;;;;;;1.00;43.93;102354.13;5088366;28;20417;-65
2021/12/22 01:16:02;;;;;;;14.88;12.07;;;;;;;1.04;43.76;102353.19;5088136;28;20413;-64
2021/12/22 01:18:32;;;;;;;12.65;11.23;;;;;;;1.01;43.66;102355.84;5088101;28;20557;-65
2021/12/22 01:21:09;;;;;;;13.13;10.68;;;;;;;0.96;43.98;102350.72;5088342;28;21080;-65
2021/12/22 01:23:47;;;;;;;11.38;9.38;;;;;;;0.93;44.04;102342.06;5087974;28;20469;-65
2021/12/22 01:26:14;;;;;;;11.20;9.38;;;;;;;0.77;44.33;102347.56;5087482;28;20955;-64
2021/12/22 01:28:43;;;;;;;10.18;8.90;;;;;;;0.79;44.53;102337.06;5087617;28;20492;-64
2021/12/22 01:31:15;;;;;;;11.07;9.23;;;;;;;0.69;44.49;102335.50;5087479;28;20408;-64
2021/12/22 01:33:42;;;;;;;11.98;9.50;;;;;;;0.66;44.81;102340.78;5087803;28;20494;-64
2021/12/22 01:36:10;;;;;;;11.07;9.63;;;;;;;0.68;44.64;102334.63;5088205;28;20409;-65
2021/12/22 01:38:37;;;;;;;12.23;9.75;;;;;;;0.68;44.74;102341.59;5087316;28;20413;-65
2021/12/22 01:41:04;;;;;;;12.80;10.63;;;;;;;0.59;44.97;102330.44;5087482;28;20809;-64
2021/12/22 01:43:31;;;;;;;12.48;10.80;;;;;;;0.52;45.00;102336.59;5087605;28;20428;-65
2021/12/22 01:46:21;;;;;;;12.25;10.45;;;;;;;0.57;45.11;102337.41;5087590;28;20918;-65
2021/12/22 01:51:46;;;;;;;13.27;10.70;;;;;;;0.54;45.20;102321.81;5070012;28;20420;-65
2021/12/22 01:54:22;;;;;;;13.25;10.80;;;;;;;0.42;45.40;102321.13;5087050;28;21045;-64
2021/12/22 01:56:51;;;;;;;14.18;11.35;;;;;;;0.49;45.56;102317.56;5087475;28;20546;-65
2021/12/22 01:59:20;;;;;;;14.35;12.07;;;;;;;0.51;45.55;102313.19;5087750;28;20445;-65
2021/12/22 02:01:48;;;;;;;15.85;12.95;;;;;;;0.45;45.43;102314.13;5087544;28;20478;-65
2021/12/22 02:04:16;;;;;;;15.02;13.43;;;;;;;0.42;45.83;102319.38;5087222;28;20397;-65
2021/12/22 02:06:46;;;;;;;15.85;13.30;;;;;;;0.57;45.25;102311.34;5087528;28;20800;-65
2021/12/22 02:09:21;;;;;;;16.08;13.43;;;;;;;0.55;45.55;102323.53;5087720;28;20463;-66
2021/12/22 02:11:48;;;;;;;22.30;19.98;;;;;;;0.54;45.50;102311.38;5087091;28;20439;-65
2021/12/22 02:14:15;;;;;;;17.27;14.80;;;;;;;0.54;45.29;102305.31;5087188;28;20913;-65
2021/12/22 02:16:42;;;;;;;16.80;14.93;;;;;;;0.52;45.55;102307.06;5087333;28;20413;-64
2021/12/22 02:19:10;;;;;;;22.40;20.17;;;;;;;0.48;45.83;102308.00;5087790;28;20499;-66
2021/12/22 02:21:43;;;;;;;17.55;15.57;;;;;;;0.51;45.89;102310.59;5087742;28;20420;-64
2021/12/22 02:24:10;;;;;;;16.80;13.75;;;;;;;0.54;45.79;102303.53;5087369;28;20417;-64
2021/12/22 02:26:41;;;;;;;13.98;12.48;;;;;;;0.56;45.66;102304.38;5088257;28;20415;-66
2021/12/22 02:29:19;;;;;;;14.82;12.95;;;;;;;0.49;45.81;102308.00;5091067;28;20903;-65
2021/12/22 02:31:52;;;;;;;14.05;12.48;;;;;;;0.43;45.65;102308.09;5091215;28;20409;-65
2021/12/22 02:34:19;;;;;;;15.65;12.70;;;;;;;0.44;45.90;102309.78;5090775;28;20498;-64
2021/12/22 02:36:47;;;;;;;27.40;17.90;;;;;;;0.45;45.94;102311.53;5091153;28;20996;-64
2021/12/22 02:39:14;;;;;;;40.35;24.42;;;;;;;0.50;45.78;102311.44;5091049;28;20470;-65
2021/12/22 02:41:41;;;;;;;47.95;30.30;;;;;;;0.52;45.78;102315.75;5090576;28;20825;-65
2021/12/22 02:44:10;;;;;;;28.42;19.52;;;;;;;0.16;46.49;102311.94;5090867;28;20419;-64
2021/12/22 02:46:39;;;;;;;41.60;26.02;;;;;;;0.23;46.76;102307.50;5090973;28;20840;-64
2021/12/22 02:49:09;;;;;;;28.10;20.38;;;;;;;0.35;46.29;102312.56;5090729;28;20416;-64
2021/12/22 02:51:36;;;;;;;33.53;22.75;;;;;;;0.15;46.83;102303.25;5069415;28;20529;-65
2021/12/22 02:54:10;;;;;;;29.73;22.00;;;;;;;0.33;46.46;102312.56;5090192;28;20420;-65
2021/12/22 02:56:50;;;;;;;28.40;19.83;;;;;;;0.41;46.67;102304.63;5090349;28;20948;-66
2021/12/22 02:59:40;;;;;;;25.00;17.93;;;;;;;0.02;46.88;102300.84;5090960;28;20442;-65
2021/12/22 03:02:25;;;;;;;22.02;16.88;;;;;;;0.08;47.34;102303.34;5090369;28;21156;-65
2021/12/22 03:04:55;;;;;;;22.85;16.80;;;;;;;0.14;47.23;102300.66;5090742;28;20482;-65
2021/12/22 03:07:25;;;;;;;22.25;16.77;;;;;;;0.08;47.23;102300.75;5091000;28;20448;-65
2021/12/22 03:10:00;;;;;;;24.90;17.73;;;;;;;0.22;46.96;102297.97;5090487;28;20417;-65
2021/12/22 03:12:31;;;;;;;23.40;20.60;;;;;;;0.32;46.61;102299.53;5090044;28;20851;-65
2021/12/22 03:14:58;;;;;;;17.48;14.82;;;;;;;0.22;46.42;102297.97;5089943;28;20421;-64
2021/12/22 03:17:25;;;;;;;21.13;17.57;;;;;;;0.22;46.53;102303.16;5090388;28;20513;-64
2021/12/22 03:19:52;;;;;;;23.38;18.00;;;;;;;0.28;46.51;102303.94;5090167;28;20415;-65
2021/12/22 03:22:20;;;;;;;14.97;13.27;;;;;;;0.03;47.00;102297.34;5089994;28;20524;-65
2021/12/22 03:24:49;;;;;;;18.50;15.23;;;;;;;0.22;46.74;102300.56;5090245;28;20454;-64
2021/12/22 03:27:18;;;;;;;17.70;14.68;;;;;;;0.08;46.72;102296.41;5089867;28;20450;-64
2021/12/22 03:29:46;;;;;;;19.27;15.93;;;;;;;0.39;46.51;102304.66;5090211;28;20898;-64
2021/12/22 03:32:13;;;;;;;22.02;19.60;;;;;;;0.43;46.18;102308.09;5089786;28;20484;-64
2021/12/22 03:34:41;;;;;;;26.67;22.37;;;;;;;0.32;47.04;102309.97;5089933;28;20492;-64
2021/12/22 03:37:09;;;;;;;22.85;18.60;;;;;;;0.52;46.39;102310.53;5090047;28;20523;-65
2021/12/22 03:39:36;;;;;;;26.33;19.60;;;;;;;0.49;46.46;102308.00;5088982;28;20506;-65
2021/12/22 03:42:06;;;;;;;27.65;23.05;;;;;;;0.36;47.31;102312.50;5089629;28;20495;-64
2021/12/22 03:44:34;;;;;;;24.70;20.10;;;;;;;0.47;46.72;102307.16;5090275;28;20521;-65
2021/12/22 03:47:01;;;;;;;29.70;26.23;;;;;;;0.56;46.62;102314.81;5089783;28;20417;-65
2021/12/22 03:49:29;;;;;;;24.42;20.23;;;;;;;0.46;46.68;102305.41;5089705;28;20484;-64
2021/12/22 03:51:57;;;;;;;22.50;20.10;;;;;;;0.40;46.77;102308.97;5072589;28;20484;-64
2021/12/22 03:54:24;;;;;;;24.13;20.63;;;;;;;0.42;46.41;102311.56;5089590;28;20496;-64
2021/12/22 03:56:51;;;;;;;35.00;31.52;;;;;;;0.46;46.73;102308.03;5089407;28;20520;-64
2021/12/22 03:59:19;;;;;;;66.90;60.65;;;;;;;0.50;46.51;102309.69;5089242;28;20403;-64
2021/12/22 04:01:48;;;;;;;44.83;36.28;;;;;;;0.46;46.72;102313.22;5089055;28;20757;-65
2021/12/22 04:04:18;;;;;;;56.80;43.35;;;;;;;0.47;46.52;102309.75;5089143;28;20503;-65
2021/12/22 04:06:46;;;;;;;55.13;49.25;;;;;;;0.42;46.84;102310.69;5089441;28;20487;-64
2021/12/22 04:09:14;;;;;;;44.63;33.60;;;;;;;0.43;47.22;102315.00;5089018;28;20846;-64
2021/12/22 04:11:41;;;;;;;37.22;31.00;;;;;;;0.42;46.86;102315.91;5089628;28;20500;-65
2021/12/22 04:14:08;;;;;;;37.30;27.90;;;;;;;0.30;47.02;102319.56;5089499;28;20488;-64
2021/12/22 04:16:35;;;;;;;33.70;25.33;;;;;;;-0.03;47.95;102314.78;5088658;28;20505;-64
2021/12/22 04:19:04;;;;;;;33.47;26.55;;;;;;;0.21;47.15;102314.50;5088876;28;20412;-64
2021/12/22 04:21:31;;;;;;;34.50;28.88;;;;;;;0.32;47.15;102312.56;5088857;28;20405;-64
2021/12/22 04:23:59;;;;;;;35.03;28.27;;;;;;;0.37;46.92;102321.22;5088572;28;20521;-64
2021/12/22 04:26:30;;;;;;;35.03;27.75;;;;;;;0.01;47.60;102322.56;5088460;28;20945;-64
2021/12/22 04:28:57;;;;;;;38.13;27.90;;;;;;;0.03;47.80;102320.81;5088473;28;20442;-64
2021/12/22 04:31:24;;;;;;;36.95;30.08;;;;;;;-0.12;48.56;102324.44;5088839;28;20423;-64
2021/12/22 04:33:51;;;;;;;37.85;31.48;;;;;;;0.17;47.43;102326.69;5088417;28;20413;-64
2021/12/22 04:36:19;;;;;;;35.13;31.33;;;;;;;0.21;47.39;102328.38;5088641;28;20526;-64
2021/12/22 04:38:46;;;;;;;44.67;32.40;;;;;;;-0.02;47.67;102331.28;5088635;28;20433;-64
2021/12/22 04:41:13;;;;;;;30.40;25.02;;;;;;;-0.22;48.27;102324.59;5088564;28;20409;-64
2021/12/22 04:43:40;;;;;;;39.15;34.80;;;;;;;-0.19;48.39;102331.50;5088335;28;20519;-64
2021/12/22 04:46:07;;;;;;;33.95;26.83;;;;;;;0.13;47.67;102336.28;5088661;28;20482;-65
2021/12/22 04:48:35;;;;;;;34.08;27.35;;;;;;;0.21;48.27;102341.41;5089912;28;20437;-66
2021/12/22 04:51:11;;;;;;;37.70;29.50;;;;;;;0.47;47.24;102332.38;5076208;28;20409;-64
2021/12/22 04:53:49;;;;;;;36.65;31.33;;;;;;;0.63;47.08;102338.19;5088214;28;20466;-66
2021/12/22 04:56:16;;;;;;;53.05;44.50;;;;;;;0.66;46.40;102340.78;5089723;28;20418;-65
2021/12/22 04:58:43;;;;;;;40.77;36.37;;;;;;;0.72;46.25;102343.28;5088393;28;20586;-65
2021/12/22 05:01:10;;;;;;;34.78;31.35;;;;;;;0.77;46.22;102342.34;5089749;28;20493;-64
2021/12/22 05:03:37;;;;;;;27.35;23.40;;;;;;;0.78;46.26;102338.81;5089437;28;20419;-64
2021/12/22 05:06:04;;;;;;;30.33;25.95;;;;;;;0.82;46.42;102341.41;5089550;28;20498;-64
2021/12/22 05:08:31;;;;;;;30.35;26.17;;;;;;;0.96;45.72;102344.63;5087571;28;20495;-64
2021/12/22 05:11:00;;;;;;;36.30;32.28;;;;;;;1.03;45.67;102348.00;5088226;28;20838;-64
2021/12/22 05:13:28;;;;;;;45.97;41.63;;;;;;;1.05;45.72;102341.00;5089735;28;20484;-65
2021/12/22 05:15:55;;;;;;;34.55;28.80;;;;;;;1.18;45.52;102339.91;5088724;28;20483;-65
2021/12/22 05:18:25;;;;;;;43.85;29.30;;;;;;;1.22;45.40;102335.47;5088085;28;20411;-65
2021/12/22 05:20:53;;;;;;;44.47;30.42;;;;;;;1.20;45.52;102339.00;5088011;28;20410;-67
2021/12/22 05:23:21;;;;;;;42.00;34.42;;;;;;;1.23;45.33;102348.50;5086676;28;20507;-66
2021/12/22 05:25:48;;;;;;;37.78;30.45;;;;;;;1.27;45.35;102346.72;5088025;28;20921;-67
2021/12/22 05:28:16;;;;;;;42.42;33.13;;;;;;;1.35;45.04;102350.91;5088995;28;20976;-67
2021/12/22 05:30:46;;;;;;;36.10;27.58;;;;;;;1.35;44.97;102345.69;5087985;28;20501;-66
2021/12/22 05:33:13;;;;;;;47.13;33.93;;;;;;;1.30;45.49;102347.53;5087929;28;20430;-64
2021/12/22 05:35:40;;;;;;;73.63;57.15;;;;;;;1.37;44.96;102351.72;5088867;28;20484;-66
2021/12/22 05:38:07;;;;;;;58.08;41.95;;;;;;;1.37;45.14;102346.50;5089406;28;20476;-66
2021/12/22 05:40:34;;;;;;;53.20;38.75;;;;;;;1.38;44.97;102350.00;5089276;28;20488;-65
2021/12/22 05:43:01;;;;;;;41.28;30.13;;;;;;;1.22;44.97;102349.41;5088563;28;20409;-64
2021/12/22 05:45:29;;;;;;;37.30;25.77;;;;;;;0.99;45.81;102355.00;5088521;28;20409;-65
2021/12/22 05:47:56;;;;;;;53.17;41.42;;;;;;;1.15;45.34;102360.84;5087285;28;20666;-66
2021/12/22 05:50:24;;;;;;;90.10;72.60;;;;;;;1.14;45.56;102361.75;5088458;28;20901;-65
2021/12/22 05:52:51;;;;;;;60.65;41.45;;;;;;;1.10;45.61;102362.69;5087666;28;20407;-66
2021/12/22 05:55:18;;;;;;;51.60;34.50;;;;;;;1.36;45.08;102363.09;5088380;28;20529;-66
2021/12/22 05:57:46;;;;;;;57.17;31.95;;;;;;;1.43;44.58;102357.75;5088693;28;20505;-66
2021/12/22 06:00:15;;;;;;;63.30;33.78;;;;;;;1.48;44.50;102358.50;5088779;28;20460;-65
2021/12/22 06:02:43;;;;;;;58.55;32.83;;;;;;;1.58;44.25;102365.28;5091305;28;20404;-66
2021/12/22 06:05:10;;;;;;;51.35;31.02;;;;;;;1.66;44.09;102366.00;5092838;28;20454;-66
2021/12/22 06:07:38;;;;;;;48.78;33.85;;;;;;;1.82;43.63;102371.78;5092827;28;20905;-66
2021/12/22 06:10:06;;;;;;;54.00;37.80;;;;;;;1.86;43.66;102367.38;5093095;28;20408;-67
2021/12/22 06:12:33;;;;;;;59.90;42.00;;;;;;;2.31;42.85;102369.91;5093011;28;20395;-65
2021/12/22 06:15:00;;;;;;;57.13;37.40;;;;;;;2.27;42.99;102370.88;5092743;28;20403;-66
2021/12/22 06:17:27;;;;;;;54.97;32.53;;;;;;;2.72;42.13;102373.38;5093287;28;20533;-64
2021/12/22 06:19:56;;;;;;;54.40;32.92;;;;;;;3.01;41.56;102381.38;5092994;28;20417;-65
2021/12/22 06:22:24;;;;;;;56.65;34.03;;;;;;;3.13;41.15;102377.59;5092363;28;20514;-64
2021/12/22 06:24:51;;;;;;;121.03;80.85;;;;;;;3.17;40.95;102373.16;5092566;28;20438;-65
2021/12/22 06:27:18;;;;;;;72.63;48.30;;;;;;;3.36;40.87;102382.25;5092935;28;20409;-66
2021/12/22 06:29:44;;;;;;;61.17;43.10;;;;;;;3.80;40.04;102382.81;5092566;28;20981;-66
2021/12/22 06:32:11;;;;;;;72.57;50.95;;;;;;;4.50;39.02;102389.56;5092357;28;20415;-66
2021/12/22 06:34:38;;;;;;;62.17;48.97;;;;;;;5.56;36.94;102382.59;5092822;28;20409;-67
2021/12/22 06:37:07;;;;;;;51.55;39.58;;;;;;;5.04;37.57;102382.59;5092380;28;20409;-66
2021/12/22 06:39:35;;;;;;;48.90;34.53;;;;;;;4.80;37.62;102382.47;5092288;28;20413;-66
2021/12/22 06:42:02;;;;;;;59.08;42.85;;;;;;;4.86;37.54;102396.31;5092360;28;20420;-67
2021/12/22 06:44:29;;;;;;;61.23;39.03;;;;;;;4.44;38.31;102392.38;5092148;28;20511;-66
2021/12/22 06:46:56;;;;;;;60.08;41.63;;;;;;;4.25;38.56;102393.81;5092464;28;20413;-66
2021/12/22 06:49:24;;;;;;;62.45;41.28;;;;;;;4.55;38.16;102392.03;5092175;28;20440;-66
2021/12/22 06:51:51;;;;;;;65.63;40.75;;;;;;;4.64;37.94;102394.34;5092117;28;20424;-66
2021/12/22 06:54:19;;;;;;;63.17;42.95;;;;;;;4.71;37.80;102392.41;5092480;28;20417;-65
2021/12/22 06:56:47;;;;;;;65.23;45.27;;;;;;;4.90;37.64;102401.41;5092110;28;20776;-66
2021/12/22 06:59:15;;;;;;;44.00;32.65;;;;;;;5.06;37.15;102406.19;5092049;28;20497;-66
2021/12/22 07:01:42;;;;;;;45.65;32.55;;;;;;;4.78;37.71;102399.19;5092289;28;20500;-66
2021/12/22 07:04:09;;;;;;;47.42;32.33;;;;;;;4.55;37.92;102394.66;5092117;28;20969;-65
2021/12/22 07:06:36;;;;;;;50.05;34.58;;;;;;;4.58;37.82;102403.31;5092121;28;20414;-66
2021/12/22 07:09:06;;;;;;;49.75;35.65;;;;;;;4.56;37.88;102402.50;5092261;28;20444;-66
2021/12/22 07:11:35;;;;;;;34.47;26.03;;;;;;;4.61;37.74;102403.19;5091740;28;20493;-66
2021/12/22 07:14:03;;;;;;;125.97;91.70;;;;;;;5.11;37.09;102409.50;5091470;28;20413;-65
2021/12/22 07:16:30;;;;;;;34.28;27.83;;;;;;;5.58;36.35;102407.06;5091655;28;20534;-66
2021/12/22 07:18:57;;;;;;;34.50;23.83;;;;;;;5.78;35.98;102409.84;5091921;28;20413;-66
2021/12/22 07:21:24;;;;;;;32.20;23.50;;;;;;;6.42;35.42;102406.63;5091947;28;20413;-66
2021/12/22 07:23:51;;;;;;;31.75;25.55;;;;;;;8.35;32.45;102409.06;5091733;28;20516;-66
2021/12/22 07:26:18;;;;;;;54.17;48.30;;;;;;;10.07;29.99;102408.44;5091551;28;20428;-66
2021/12/22 07:28:49;;;;;;;31.33;26.33;;;;;;;11.84;27.40;102411.66;5091737;28;20484;-65
2021/12/22 07:31:17;;;;;;;30.10;23.67;;;;;;;10.33;28.80;102414.16;5091299;28;20928;-64
2021/12/22 07:33:49;;;;;;;36.45;27.27;;;;;;;9.26;30.10;102413.53;5091308;28;20504;-64
2021/12/22 07:36:16;;;;;;;31.25;23.48;;;;;;;8.70;30.85;102406.56;5091589;28;20487;-64
2021/12/22 07:38:51;;;;;;;35.83;26.52;;;;;;;8.22;31.54;102409.63;5091368;28;21492;-64
2021/12/22 07:41:18;;;;;;;39.15;29.60;;;;;;;7.99;31.89;102425.69;5091469;28;20492;-64
2021/12/22 07:43:46;;;;;;;41.88;32.90;;;;;;;8.25;31.63;102424.47;5091021;28;21878;-65
2021/12/22 07:46:13;;;;;;;44.00;32.40;;;;;;;8.48;31.56;102423.47;5091108;28;20450;-65
2021/12/22 07:48:40;;;;;;;34.90;27.70;;;;;;;8.55;31.36;102435.44;5091431;28;20417;-64
2021/12/22 07:51:07;;;;;;;32.95;24.92;;;;;;;9.59;30.27;102424.19;5091372;28;20417;-66
2021/12/22 07:53:34;;;;;;;35.03;24.27;;;;;;;9.79;29.68;102425.81;5091151;28;20930;-66
2021/12/22 07:56:01;;;;;;;28.38;22.17;;;;;;;9.74;29.59;102430.47;5091291;28;20416;-66
2021/12/22 07:58:28;;;;;;;30.70;26.13;;;;;;;10.78;28.48;102433.75;5090953;28;20469;-67
2021/12/22 08:00:57;;;;;;;30.97;23.70;;;;;;;15.17;23.86;102433.47;5091248;28;20553;-67
2021/12/22 08:03:25;;;;;;;36.13;24.88;;;;;;;14.74;23.81;102435.78;5091173;28;20409;-67
2021/12/22 08:05:53;;;;;;;37.25;27.52;;;;;;;14.68;23.50;102439.78;5090776;28;20515;-67
2021/12/22 08:08:20;;;;;;;36.53;28.35;;;;;;;16.26;21.85;102442.94;5090802;28;20496;-67
2021/12/22 08:10:48;;;;;;;35.72;26.25;;;;;;;14.37;23.52;102457.09;5090966;28;20417;-68
2021/12/22 08:13:15;;;;;;;33.17;25.40;;;;;;;13.62;24.35;102447.19;5091159;28;20436;-67
2021/12/22 08:15:42;;;;;;;27.30;23.47;;;;;;;17.30;21.03;102457.69;5090897;28;20496;-67
2021/12/22 08:18:11;;;;;;;29.03;22.07;;;;;;;16.57;21.28;102457.38;5091390;28;20500;-65
2021/12/22 08:20:38;;;;;;;23.77;20.70;;;;;;;16.89;21.25;102455.75;5090444;28;20405;-67
2021/12/22 08:23:05;;;;;;;23.95;18.70;;;;;;;17.85;20.09;102462.88;5090278;28;20410;-67
2021/12/22 08:25:31;;;;;;;28.58;21.63;;;;;;;20.28;17.82;102453.34;5089892;28;20520;-65
2021/12/22 08:27:58;;;;;;;26.63;22.08;;;;;;;22.10;16.30;102452.13;5090517;28;20417;-68
2021/12/22 08:30:27;;;;;;;25.90;22.13;;;;;;;23.84;15.24;102465.81;5090457;28;20413;-69
2021/12/22 08:32:54;;;;;;;24.63;22.02;;;;;;;25.96;13.40;102449.25;5090225;28;20417;-69
2021/12/22 08:35:25;;;;;;;31.95;28.55;;;;;;;28.33;12.00;102449.16;5090439;28;20440;-67
2021/12/22 08:40:36;;;;;;;23.00;20.55;;;;;;;30.78;10.04;102454.66;5090169;28;20923;-67
2021/12/22 08:43:03;;;;;;;21.27;19.13;;;;;;;31.44;9.61;102453.31;5090515;28;20409;-67
2021/12/22 08:45:30;;;;;;;22.67;20.27;;;;;;;30.63;9.61;102441.25;5090116;28;20429;-67
2021/12/22 08:47:57;;;;;;;25.63;22.80;;;;;;;28.88;10.55;102444.50;5090216;28;20405;-66
2021/12/22 08:50:27;;;;;;;39.70;33.40;;;;;;;28.94;10.58;102443.66;5090116;28;20492;-67
2021/12/22 08:52:55;;;;;;;31.85;28.45;;;;;;;28.81;10.45;102443.63;5090096;28;20774;-67
2021/12/22 08:55:22;;;;;;;32.28;28.88;;;;;;;29.45;10.39;102439.50;5089796;28;20932;-66
2021/12/22 08:57:49;;;;;;;27.58;24.63;;;;;;;27.63;11.01;102451.03;5089794;28;20496;-67
2021/12/22 09:00:16;;;;;;;25.52;23.08;;;;;;;25.75;12.01;102442.66;5090184;28;20405;-67
2021/12/22 09:02:45;;;;;;;27.52;24.63;;;;;;;23.43;13.70;102434.22;5089725;28;20416;-67
2021/12/22 09:05:12;;;;;;;30.17;27.08;;;;;;;21.18;15.13;102432.78;5090004;28;20428;-67
2021/12/22 09:07:40;;;;;;;33.97;29.45;;;;;;;19.32;16.95;102435.47;5090129;28;20484;-66
2021/12/22 09:10:08;;;;;;;34.20;29.25;;;;;;;18.84;17.75;102438.97;5089627;28;20402;-68
2021/12/22 09:12:35;;;;;;;35.85;32.03;;;;;;;18.19;17.95;102442.03;5090154;28;20480;-67
2021/12/22 09:15:02;;;;;;;140.70;82.20;;;;;;;17.67;18.68;102429.59;5089455;28;20420;-67
2021/12/22 09:17:29;;;;;;;70.90;47.22;;;;;;;20.74;16.35;102435.38;5089445;28;20435;-67
2021/12/22 09:19:56;;;;;;;34.58;29.73;;;;;;;19.92;16.81;102427.13;5089441;28;20496;-67
2021/12/22 09:22:24;;;;;;;31.97;27.90;;;;;;;18.66;18.30;102425.34;5089522;28;20492;-67
2021/12/22 09:24:53;;;;;;;26.05;23.35;;;;;;;17.56;19.16;102427.84;5089182;28;20429;-66
2021/12/22 09:27:19;;;;;;;29.73;26.52;;;;;;;17.74;19.27;102428.94;5089391;28;20896;-66
2021/12/22 09:29:46;;;;;;;29.02;25.80;;;;;;;19.21;18.18;102424.84;5089655;28;20412;-67
2021/12/22 09:32:17;;;;;;;22.60;20.23;;;;;;;19.15;17.92;102420.03;5089329;28;20447;-67
2021/12/22 09:34:45;;;;;;;26.38;22.00;;;;;;;18.59;18.25;102424.19;5088164;28;20903;-67
2021/12/22 09:37:12;;;;;;;29.17;26.13;;;;;;;18.72;18.44;102423.94;5089264;28;20500;-67
2021/12/22 09:39:40;;;;;;;28.00;25.10;;;;;;;18.57;18.44;102421.66;5089084;28;20417;-67
2021/12/22 09:42:09;;;;;;;18.00;16.13;;;;;;;16.22;20.41;102420.09;5089133;28;20417;-67
2021/12/22 09:44:43;;;;;;;22.27;19.80;;;;;;;13.03;24.13;102415.63;5089273;28;20425;-66
2021/12/22 09:47:11;;;;;;;25.10;22.02;;;;;;;11.57;26.19;102414.16;5089430;28;20412;-66
2021/12/22 09:49:58;;;;;;;24.73;20.60;;;;;;;10.70;27.51;102414.78;5089290;28;20467;-66
2021/12/22 09:52:27;;;;;;;24.50;20.15;;;;;;;10.88;27.50;102410.22;5089233;28;20898;-66
2021/12/22 09:54:56;;;;;;;26.97;20.43;;;;;;;11.51;26.96;102414.50;5089431;28;20417;-66
2021/12/22 09:57:25;;;;;;;27.35;22.52;;;;;;;12.80;25.59;102401.19;5089403;28;20405;-66
2021/12/22 09:59:54;;;;;;;27.80;23.48;;;;;;;13.35;24.63;102402.00;5088954;28;20930;-66
2021/12/22 10:02:25;;;;;;;46.65;32.33;;;;;;;13.63;24.44;102400.97;5088885;28;20920;-66
2021/12/22 10:04:53;;;;;;;89.75;58.53;;;;;;;14.75;23.34;102398.34;5088992;28;20431;-66
2021/12/22 10:07:24;;;;;;;247.30;136.40;;;;;;;16.33;21.21;102398.69;5089021;28;20410;-66
2021/12/22 10:09:52;;;;;;;177.48;95.40;;;;;;;18.87;19.20;102397.56;5089006;28;20405;-66
2021/12/22 10:12:22;;;;;;;199.80;116.93;;;;;;;18.78;18.77;102388.50;5088933;28;20910;-67
2021/12/22 10:14:53;;;;;;;141.60;83.93;;;;;;;19.09;18.17;102385.69;5089036;28;20408;-67
2021/12/22 10:17:31;;;;;;;35.22;27.42;;;;;;;18.04;19.44;102386.19;5089115;28;20488;-67
2021/12/22 10:20:00;;;;;;;36.15;32.47;;;;;;;18.59;18.53;102382.13;5088746;28;20779;-66
2021/12/22 10:22:32;;;;;;;19.50;15.88;;;;;;;19.35;18.01;102381.41;5089291;28;20504;-67
2021/12/22 10:25:10;;;;;;;16.67;15.05;;;;;;;21.26;15.94;102380.78;5089076;28;20512;-66
2021/12/22 10:27:42;;;;;;;40.63;34.00;;;;;;;19.38;17.33;102374.88;5088699;28;20782;-67
2021/12/22 10:30:25;;;;;;;20.67;18.27;;;;;;;20.31;17.06;102367.75;5088816;28;20416;-66
2021/12/22 10:33:07;;;;;;;21.98;17.23;;;;;;;21.13;16.34;102375.81;5088592;28;20981;-67
2021/12/22 10:35:38;;;;;;;23.77;18.42;;;;;;;20.41;16.97;102373.06;5089162;28;20508;-67
2021/12/22 10:38:06;;;;;;;26.73;21.52;;;;;;;20.35;16.87;102371.00;5088581;28;20874;-67
2021/12/22 10:40:35;;;;;;;34.63;24.73;;;;;;;19.47;17.66;102374.03;5088658;28;20500;-67
2021/12/22 10:43:03;;;;;;;13.15;11.60;;;;;;;19.30;17.45;102367.56;5088990;28;20427;-67
2021/12/22 10:45:34;;;;;;;18.33;16.50;;;;;;;19.31;17.09;102363.03;5089074;28;20447;-67
2021/12/22 10:50:52;;;;;;;19.02;14.77;;;;;;;17.70;18.30;102352.44;5092703;28;20886;-67
2021/12/22 10:53:19;;;;;;;24.67;21.45;;;;;;;17.50;18.71;102353.31;5092741;28;20410;-66
2021/12/22 10:55:49;;;;;;;56.20;39.20;;;;;;;19.14;17.62;102351.16;5092535;28;20405;-66
2021/12/22 10:58:24;;;;;;;26.15;19.73;;;;;;;20.82;15.88;102343.88;5092117;28;20497;-67
2021/12/22 11:01:13;;;;;;;22.48;19.83;;;;;;;22.87;14.33;102342.16;5092361;28;20476;-67
2021/12/22 11:03:46;;;;;;;13.55;12.15;;;;;;;22.89;14.16;102336.56;5092320;28;20413;-67
2021/12/22 11:06:17;;;;;;;18.13;16.13;;;;;;;22.77;14.62;102336.09;5092248;28;20429;-66
2021/12/22 11:08:54;;;;;;;15.43;13.13;;;;;;;22.31;14.87;102333.81;5092133;28;20417;-67
2021/12/22 11:11:21;;;;;;;17.93;13.70;;;;;;;22.33;14.56;102325.56;5092352;28;20416;-67
2021/12/22 11:14:02;;;;;;;15.60;13.98;;;;;;;22.65;14.14;102324.75;5091845;28;20496;-67
2021/12/22 11:16:31;;;;;;;15.40;13.63;;;;;;;22.64;14.02;102319.50;5091824;28;20925;-67
2021/12/22 11:19:09;;;;;;;12.07;10.85;;;;;;;21.71;14.29;102320.41;5091604;28;20497;-67
2021/12/22 11:21:37;;;;;;;12.38;10.57;;;;;;;20.91;14.99;102318.72;5091612;28;20448;-68
2021/12/22 11:24:04;;;;;;;11.35;10.30;;;;;;;21.83;13.95;102315.59;5092054;28;20431;-67
2021/12/22 11:26:31;;;;;;;8.85;7.93;;;;;;;22.28;13.37;102312.53;5091750;28;20515;-67
2021/12/22 11:28:59;;;;;;;13.90;10.25;;;;;;;21.80;13.57;102309.50;5091411;28;20500;-67
2021/12/22 11:31:27;;;;;;;12.33;9.70;;;;;;;16.53;17.23;102305.25;5091118;28;20492;-67